Time;durP1;ratioP1;P1;durP2;ratioP2;P2;SDS_P1;SDS_P2;PMS_P1;PMS_P2;Temp;Humidity;BMP_temperature;BMP_pressure;BME280_temperature;BME280_humidity;BME280_pressure;Samples;Min_cycle;Max_cycle;Signal;HPM_P1;HPM_P2
2023/09/28 00:02:15;;;;;;;2.28;1.92;;;19.10;99.90;;;19.48;100.00;100831.72;5230680;28;20044;-48
2023/09/28 00:04:47;;;;;;;4.15;2.85;;;19.10;99.90;;;19.47;100.00;100835.25;5231091;28;20454;-47
2023/09/28 00:07:19;;;;;;;3.05;2.17;;;19.10;99.90;;;19.46;100.00;100846.72;5232440;28;20412;-48
2023/09/28 00:09:51;;;;;;;2.70;2.38;;;19.00;99.90;;;19.44;100.00;100840.56;5214677;28;20053;-49
2023/09/28 00:12:23;;;;;;;3.28;2.33;;;19.00;99.90;;;19.44;100.00;100830.88;5232529;28;20132;-47
2023/09/28 00:14:54;;;;;;;2.90;2.15;;;19.00;99.90;;;19.45;100.00;100848.47;5224003;28;20118;-48
2023/09/28 00:17:34;;;;;;;3.00;2.30;;;19.00;99.90;;;19.46;100.00;100847.59;5216227;28;20049;-49
2023/09/28 00:20:09;;;;;;;2.70;2.03;;;19.00;99.90;;;19.46;100.00;100852.00;5233025;28;20049;-48
2023/09/28 00:22:42;;;;;;;5.15;2.45;;;19.00;99.90;;;19.45;100.00;100844.97;5217002;28;20052;-48
2023/09/28 00:25:16;;;;;;;3.83;2.42;;;19.00;99.90;;;19.45;100.00;100855.53;5227580;28;20079;-48
2023/09/28 00:27:55;;;;;;;3.72;2.17;;;19.00;99.90;;;19.47;100.00;100867.84;5216144;28;20053;-48
2023/09/28 00:30:27;;;;;;;2.95;2.30;;;19.10;99.90;;;19.49;100.00;100854.63;5216377;28;20045;-48
2023/09/28 00:33:01;;;;;;;3.42;2.20;;;19.10;99.90;;;19.49;100.00;100859.91;5229870;28;20038;-48
2023/09/28 00:35:32;;;;;;;2.90;2.10;;;19.10;99.90;;;19.50;100.00;100845.84;5234211;28;20053;-48
2023/09/28 00:38:05;;;;;;;4.18;2.63;;;19.10;99.90;;;19.49;100.00;100859.91;5218361;28;20060;-49
2023/09/28 00:40:39;;;;;;;3.88;2.70;;;19.10;99.90;;;19.49;100.00;100859.91;5220710;28;20049;-48
2023/09/28 00:43:12;;;;;;;2.92;2.42;;;19.10;99.90;;;19.51;100.00;100867.00;5235595;28;20049;-49
2023/09/28 00:45:43;;;;;;;3.10;2.28;;;19.20;99.90;;;19.52;100.00;100857.28;5231177;28;20041;-48
2023/09/28 00:48:17;;;;;;;2.53;2.20;;;19.10;99.90;;;19.56;100.00;100869.63;5228912;28;20111;-49
2023/09/28 00:50:50;;;;;;;2.97;1.98;;;19.20;99.90;;;19.57;100.00;100871.41;5231809;28;20045;-48
2023/09/28 00:53:24;;;;;;;2.80;2.00;;;19.20;99.90;;;19.59;100.00;100904.03;5220776;28;20056;-48
2023/09/28 00:56:00;;;;;;;3.42;2.10;;;19.20;99.90;;;19.57;100.00;100919.00;5221248;28;20049;-47
2023/09/28 00:58:32;;;;;;;2.83;2.25;;;19.20;99.90;;;19.56;100.00;100918.97;5226552;28;20048;-48
2023/09/28 01:01:06;;;;;;;2.63;2.15;;;19.20;99.90;;;19.55;100.00;100920.72;5220838;28;20316;-48
2023/09/28 01:03:39;;;;;;;2.85;2.10;;;19.10;99.90;;;19.51;100.00;100925.16;5233441;28;20057;-47
2023/09/28 01:06:11;;;;;;;2.60;2.00;;;19.10;99.90;;;19.47;100.00;100931.31;5219398;28;20047;-48
2023/09/28 01:08:43;;;;;;;2.70;2.13;;;19.10;99.90;;;19.45;100.00;100921.63;5217470;28;20061;-48
2023/09/28 01:11:17;;;;;;;2.58;2.03;;;19.00;99.90;;;19.42;100.00;100916.31;5234580;28;20056;-49
2023/09/28 01:13:49;;;;;;;3.00;2.25;;;19.00;99.90;;;19.38;100.00;100914.56;5220305;28;20132;-48
2023/09/28 01:16:21;;;;;;;2.78;1.88;;;19.00;99.90;;;19.39;100.00;100921.63;5236864;28;20263;-48
2023/09/28 01:18:54;;;;;;;3.13;2.22;;;19.00;99.90;;;19.35;100.00;100914.56;5220031;28;20056;-48
2023/09/28 01:21:26;;;;;;;3.35;2.10;;;19.00;99.90;;;19.30;100.00;100911.94;5219716;28;20060;-48
2023/09/28 01:23:59;;;;;;;2.65;1.92;;;18.90;99.90;;;19.28;100.00;100918.06;5220930;28;20053;-48
2023/09/28 01:26:31;;;;;;;2.88;1.90;;;18.90;99.90;;;19.22;100.00;100905.72;5232017;28;20052;-48
2023/09/28 01:29:03;;;;;;;3.13;2.25;;;18.80;99.90;;;19.18;100.00;100896.06;5222934;28;20412;-49
2023/09/28 01:31:39;;;;;;;2.65;2.10;;;18.80;99.90;;;19.16;100.00;100903.06;5234325;28;20233;-48
2023/09/28 01:34:11;;;;;;;2.13;1.92;;;18.80;99.90;;;19.16;100.00;100906.59;5234538;28;20122;-48
2023/09/28 01:36:43;;;;;;;2.75;2.13;;;18.80;99.90;;;19.14;100.00;100904.84;5234511;28;20041;-49
2023/09/28 01:39:16;;;;;;;2.50;1.92;;;18.70;99.90;;;19.11;100.00;100895.16;5221687;28;20049;-48
2023/09/28 01:41:48;;;;;;;2.80;2.13;;;18.70;99.90;;;19.12;100.00;100898.69;5236474;28;20049;-48
2023/09/28 01:44:19;;;;;;;2.55;2.20;;;18.70;99.90;;;19.11;100.00;100884.59;5223048;28;20077;-47
2023/09/28 01:46:52;;;;;;;2.78;2.10;;;18.70;99.90;;;19.09;100.00;100880.16;5225409;28;20124;-48
2023/09/28 01:49:23;;;;;;;3.40;2.42;;;18.70;99.90;;;19.07;100.00;100882.81;5232766;28;20041;-48
2023/09/28 01:51:58;;;;;;;3.17;2.33;;;18.70;99.90;;;19.06;100.00;100890.75;5225400;28;20094;-48
2023/09/28 01:54:31;;;;;;;3.00;2.10;;;18.70;99.90;;;19.05;100.00;100889.88;5223455;28;20053;-47
2023/09/28 01:57:04;;;;;;;3.53;2.28;;;18.60;99.90;;;19.04;100.00;100896.03;5229232;28;20115;-48
2023/09/28 01:59:35;;;;;;;3.15;2.30;;;18.60;99.90;;;19.03;100.00;100888.09;5222003;28;20492;-48
2023/09/28 02:02:07;;;;;;;3.42;2.38;;;18.60;99.90;;;19.04;100.00;100888.13;5224069;28;20052;-48
2023/09/28 02:04:39;;;;;;;2.97;2.28;;;18.60;99.90;;;19.04;100.00;100898.69;5219620;28;20037;-48
2023/09/28 02:07:11;;;;;;;2.85;2.28;;;18.70;99.90;;;19.05;100.00;100903.09;5238569;28;20048;-48
2023/09/28 02:09:44;;;;;;;4.63;2.70;;;18.70;99.90;;;19.04;100.00;100893.41;5238139;28;20052;-48
2023/09/28 02:12:17;;;;;;;3.10;2.75;;;18.70;99.90;;;19.02;100.00;100895.13;5236773;28;20048;-48
2023/09/28 02:14:50;;;;;;;3.80;2.60;;;18.70;99.90;;;19.02;100.00;100902.19;5224310;28;20119;-48
2023/09/28 02:17:22;;;;;;;4.15;2.72;;;18.70;99.90;;;19.03;100.00;100896.88;5238458;28;20048;-48
2023/09/28 02:19:53;;;;;;;3.35;2.33;;;18.70;99.90;;;19.03;100.00;100902.19;5223512;28;20492;-48
2023/09/28 02:22:26;;;;;;;3.35;2.30;;;18.70;99.90;;;19.04;100.00;100903.06;5221792;28;20053;-49
2023/09/28 02:24:58;;;;;;;3.35;2.40;;;18.70;99.90;;;19.05;100.00;100894.28;5237670;28;20506;-48
2023/09/28 02:27:31;;;;;;;3.05;2.33;;;18.70;99.90;;;19.03;100.00;100891.59;5221811;28;20567;-48
2023/09/28 02:30:06;;;;;;;3.30;2.08;;;18.70;99.90;;;19.04;100.00;100897.78;5222254;28;20068;-48
2023/09/28 02:32:39;;;;;;;3.22;2.22;;;18.70;99.90;;;19.04;100.00;100905.69;5221930;28;20051;-48
2023/09/28 02:35:13;;;;;;;3.92;2.70;;;18.70;99.90;;;19.04;100.00;100901.31;5239378;28;20416;-48
2023/09/28 02:37:50;;;;;;;3.53;2.25;;;18.70;99.90;;;19.02;100.00;100903.06;5239765;28;20056;-48
2023/09/28 02:40:23;;;;;;;3.65;2.13;;;18.70;99.90;;;19.04;100.00;100903.06;5221501;28;20037;-48
2023/09/28 02:42:57;;;;;;;3.60;2.40;;;18.70;99.90;;;19.03;100.00;100907.47;5237912;28;20114;-48
2023/09/28 02:45:30;;;;;;;3.15;2.17;;;18.70;99.90;;;19.03;100.00;100899.53;5225775;28;20044;-48
2023/09/28 02:48:06;;;;;;;3.17;2.00;;;18.70;99.90;;;19.05;100.00;100915.41;5222965;28;20051;-48
2023/09/28 02:50:37;;;;;;;3.35;2.35;;;18.70;99.90;;;19.06;100.00;100918.06;5239179;28;20522;-48
2023/09/28 02:53:10;;;;;;;3.75;2.13;;;18.70;99.90;;;19.06;100.00;100909.25;5219786;28;20059;-48
2023/09/28 02:55:42;;;;;;;2.83;2.30;;;18.70;99.90;;;19.06;100.00;100910.13;5230475;28;20359;-47
2023/09/28 02:58:15;;;;;;;2.65;2.03;;;18.70;99.90;;;19.07;100.00;100903.97;5236496;28;20123;-48
2023/09/28 03:00:46;;;;;;;3.22;2.53;;;18.70;99.90;;;19.05;100.00;100905.72;5236553;28;20041;-48
2023/09/28 03:03:18;;;;;;;4.13;2.30;;;18.70;99.90;;;19.02;100.00;100899.53;5237552;28;20059;-48
2023/09/28 03:05:50;;;;;;;2.75;2.42;;;18.70;99.90;;;19.01;100.00;100909.22;5221159;28;20045;-48
2023/09/28 03:08:24;;;;;;;2.78;2.00;;;18.70;99.90;;;19.01;100.00;100903.94;5222535;28;20090;-48
2023/09/28 03:10:57;;;;;;;2.20;1.92;;;18.70;99.90;;;18.99;100.00;100916.28;5222356;28;20064;-48
2023/09/28 03:13:29;;;;;;;2.35;2.05;;;18.60;99.90;;;18.93;100.00;100916.25;5237326;28;20045;-48
2023/09/28 03:16:01;;;;;;;2.35;1.90;;;18.60;99.90;;;18.87;100.00;100916.25;5220886;28;20033;-48
2023/09/28 03:18:33;;;;;;;2.75;1.92;;;18.50;99.90;;;18.81;100.00;100921.50;5235089;28;20152;-48
2023/09/28 03:21:08;;;;;;;2.72;2.13;;;18.50;99.90;;;18.73;100.00;100924.13;5236529;28;20403;-48
2023/09/28 03:23:40;;;;;;;2.72;2.10;;;18.40;99.90;;;18.66;100.00;100923.22;5223466;28;20076;-48
2023/09/28 03:26:16;;;;;;;3.17;2.20;;;18.30;99.90;;;18.59;100.00;100929.31;5237137;28;20044;-48
2023/09/28 03:28:49;;;;;;;2.72;2.08;;;18.20;99.90;;;18.52;100.00;100938.09;5234744;28;20582;-48
2023/09/28 03:31:20;;;;;;;2.92;2.03;;;18.20;99.90;;;18.44;100.00;100942.44;5237949;28;20041;-48
2023/09/28 03:33:52;;;;;;;2.95;1.98;;;18.10;99.90;;;18.35;100.00;100935.34;5220273;28;20052;-48
2023/09/28 03:36:24;;;;;;;2.33;1.83;;;18.00;99.90;;;18.28;100.00;100941.47;5238168;28;20057;-48
2023/09/28 03:38:57;;;;;;;2.60;2.20;;;18.00;99.90;;;18.20;100.00;100934.41;5238050;28;20455;-47
2023/09/28 03:41:31;;;;;;;2.17;1.92;;;17.90;99.90;;;18.13;100.00;100938.75;5237372;28;20128;-48
2023/09/28 03:44:04;;;;;;;2.78;2.10;;;17.80;99.90;;;18.10;100.00;100947.53;5235204;28;21303;-48
2023/09/28 03:46:36;;;;;;;2.55;1.80;;;17.70;99.90;;;18.09;100.00;100948.41;5237832;28;20048;-48
2023/09/28 03:49:08;;;;;;;2.55;1.77;;;17.70;99.90;;;18.04;100.00;100958.03;5236721;28;20049;-48
2023/09/28 03:51:41;;;;;;;2.42;1.90;;;17.70;99.90;;;17.99;100.00;100948.31;5236487;28;20045;-49
2023/09/28 03:54:13;;;;;;;3.03;2.13;;;17.60;99.90;;;17.94;100.00;100953.56;5236346;28;20048;-49
2023/09/28 03:56:47;;;;;;;2.63;2.15;;;17.60;99.90;;;17.88;100.00;100956.16;5220876;28;20428;-49
2023/09/28 03:59:19;;;;;;;2.92;2.35;;;17.60;99.90;;;17.84;100.00;100959.63;5221826;28;20385;-48
2023/09/28 04:01:52;;;;;;;2.70;2.13;;;17.50;99.90;;;17.80;100.00;100965.75;5221133;28;20040;-49
2023/09/28 04:04:24;;;;;;;2.20;1.77;;;17.50;99.90;;;17.75;100.00;100959.56;5237082;28;20045;-49
2023/09/28 04:06:57;;;;;;;3.20;2.15;;;17.40;99.90;;;17.70;100.00;100951.59;5220425;28;20049;-50
2023/09/28 04:09:29;;;;;;;2.78;2.10;;;17.40;99.90;;;17.66;100.00;100960.31;5221229;28;20045;-49
2023/09/28 04:12:06;;;;;;;3.00;2.08;;;17.40;99.90;;;17.63;100.00;100968.22;5230035;28;20037;-50
2023/09/28 04:14:38;;;;;;;2.95;2.28;;;17.30;99.90;;;17.58;100.00;100968.19;5232272;28;20057;-49
2023/09/28 04:17:11;;;;;;;3.00;2.28;;;17.30;99.90;;;17.54;100.00;100971.69;5236149;28;20124;-48
2023/09/28 04:19:43;;;;;;;3.13;2.20;;;17.20;99.90;;;17.50;100.00;100977.78;5220390;28;20045;-48
2023/09/28 04:22:16;;;;;;;3.22;2.10;;;17.20;99.90;;;17.48;100.00;100971.63;5219880;28;20049;-48
2023/09/28 04:24:48;;;;;;;2.53;2.30;;;17.20;99.90;;;17.45;100.00;100971.56;5235371;28;20134;-48
2023/09/28 04:27:22;;;;;;;2.67;2.20;;;17.10;99.90;;;17.44;100.00;100984.75;5237397;28;20400;-48
2023/09/28 04:29:55;;;;;;;2.67;2.13;;;17.10;99.90;;;17.38;100.00;100993.47;5220368;28;20056;-48
2023/09/28 04:32:28;;;;;;;3.00;2.15;;;17.00;99.90;;;17.33;100.00;100995.16;5220443;28;20103;-48
2023/09/28 04:35:00;;;;;;;2.75;2.08;;;17.00;99.90;;;17.27;100.00;100985.44;5235611;28;20071;-48
2023/09/28 04:37:33;;;;;;;2.97;2.13;;;16.90;99.90;;;17.24;100.00;100992.44;5220868;28;20157;-48
2023/09/28 04:40:08;;;;;;;4.00;2.08;;;16.90;99.90;;;17.21;100.00;100997.66;5220035;28;20088;-49
2023/09/28 04:42:42;;;;;;;2.97;2.13;;;16.90;99.90;;;17.20;100.00;101006.44;5222255;28;20048;-49
2023/09/28 04:45:14;;;;;;;2.80;2.40;;;16.90;99.90;;;17.14;100.00;101011.63;5218096;28;20389;-50
2023/09/28 04:47:47;;;;;;;3.90;2.30;;;16.80;99.90;;;17.12;100.00;101010.75;5220304;28;20048;-49
2023/09/28 04:50:23;;;;;;;3.00;2.40;;;16.80;99.90;;;17.06;100.00;101009.78;5220581;28;20503;-49
2023/09/28 04:52:55;;;;;;;4.68;2.45;;;16.80;99.90;;;17.02;100.00;101009.75;5220216;28;20060;-49
2023/09/28 04:55:28;;;;;;;2.75;2.20;;;16.70;99.90;;;16.98;100.00;101003.56;5219728;28;20135;-48
2023/09/28 04:58:05;;;;;;;4.47;2.67;;;16.70;99.90;;;16.96;100.00;100997.41;5236583;28;20057;-49
2023/09/28 05:00:38;;;;;;;4.22;2.53;;;16.70;99.90;;;16.94;100.00;101004.38;5237432;28;20053;-50
2023/09/28 05:03:11;;;;;;;3.28;2.35;;;16.70;99.90;;;16.94;100.00;100998.22;5219952;28;20045;-49
2023/09/28 05:05:43;;;;;;;3.53;2.42;;;16.60;99.90;;;16.92;100.00;101000.84;5237159;28;20066;-51
2023/09/28 05:08:18;;;;;;;3.75;2.72;;;16.60;99.90;;;16.88;100.00;101004.31;5236832;28;20045;-49
2023/09/28 05:10:51;;;;;;;4.22;2.90;;;16.50;99.90;;;16.84;100.00;101007.78;5219373;28;20041;-49
2023/09/28 05:13:28;;;;;;;4.10;2.78;;;16.60;99.90;;;16.81;100.00;101010.34;5230078;28;20052;-49
2023/09/28 05:16:00;;;;;;;2.85;1.92;;;16.50;99.90;;;16.76;100.00;101001.53;5212827;28;20041;-48
2023/09/28 05:18:32;;;;;;;2.40;1.90;;;16.40;99.90;;;16.75;100.00;101011.16;5222005;28;20155;-48
2023/09/28 05:21:05;;;;;;;4.28;2.53;;;16.50;99.90;;;16.73;100.00;101009.38;5235535;28;20076;-49
2023/09/28 05:23:38;;;;;;;4.63;2.67;;;16.40;99.90;;;16.70;100.00;101015.50;5238059;28;20135;-48
2023/09/28 05:26:10;;;;;;;3.17;2.53;;;16.40;99.90;;;16.66;100.00;101011.00;5237035;28;20053;-50
2023/09/28 05:28:44;;;;;;;3.40;2.47;;;16.40;99.90;;;16.63;100.00;101023.28;5224288;28;20045;-49
2023/09/28 05:31:17;;;;;;;3.88;2.92;;;16.30;99.90;;;16.60;100.00;101028.47;5223610;28;20381;-49
2023/09/28 05:33:50;;;;;;;3.92;2.22;;;16.30;99.90;;;16.56;100.00;101027.53;5220669;28;20527;-48
2023/09/28 05:36:22;;;;;;;3.83;2.63;;;16.30;99.90;;;16.53;100.00;101023.13;5237728;28;20527;-48
2023/09/28 05:38:55;;;;;;;4.00;2.13;;;16.30;99.90;;;16.53;100.00;101014.34;5236331;28;20099;-49
2023/09/28 05:41:27;;;;;;;3.58;2.13;;;16.20;99.90;;;16.52;100.00;101018.72;5237753;28;20049;-48
2023/09/28 05:44:01;;;;;;;3.05;2.30;;;16.20;99.90;;;16.51;100.00;101014.34;5222368;28;20056;-48
2023/09/28 05:46:33;;;;;;;3.22;2.30;;;16.20;99.90;;;16.52;100.00;101016.09;5223478;28;20037;-47
2023/09/28 05:49:06;;;;;;;3.13;2.70;;;16.20;99.90;;;16.55;100.00;101015.25;5235472;28;20401;-48
2023/09/28 05:51:38;;;;;;;3.42;2.40;;;16.30;99.90;;;16.57;100.00;101017.91;5218945;28;20091;-49
2023/09/28 05:54:11;;;;;;;3.72;2.33;;;16.30;99.90;;;16.55;100.00;101031.03;5213563;28;20049;-49
2023/09/28 05:56:44;;;;;;;3.45;2.63;;;16.30;99.90;;;16.55;100.00;101031.91;5236988;28;20041;-49
2023/09/28 05:59:18;;;;;;;3.88;2.63;;;16.30;99.90;;;16.55;100.00;101034.53;5216562;28;20045;-47
2023/09/28 06:01:50;;;;;;;4.03;3.08;;;16.30;99.90;;;16.57;100.00;101026.69;5226162;28;20411;-48
2023/09/28 06:04:25;;;;;;;3.63;2.42;;;16.30;99.90;;;16.58;100.00;101036.34;5236245;28;20041;-48
2023/09/28 06:06:57;;;;;;;4.18;2.60;;;16.30;99.90;;;16.61;100.00;101041.66;5236691;28;20496;-48
2023/09/28 06:09:30;;;;;;;4.30;2.55;;;16.30;99.90;;;16.66;100.00;101054.88;5238103;28;20048;-49
2023/09/28 06:12:02;;;;;;;3.25;2.65;;;16.30;99.90;;;16.70;100.00;101064.63;5236901;28;20414;-48
2023/09/28 06:14:36;;;;;;;3.90;2.70;;;16.40;99.90;;;16.76;100.00;101077.88;5218799;28;20103;-49
2023/09/28 06:17:08;;;;;;;4.22;2.95;;;16.50;99.90;;;16.84;100.00;101085.88;5232079;28;20057;-47
2023/09/28 06:19:41;;;;;;;3.13;2.42;;;16.50;99.90;;;16.92;100.00;101077.22;5238173;28;20163;-47
2023/09/28 06:22:16;;;;;;;4.78;2.83;;;16.60;99.90;;;16.99;100.00;101079.06;5219723;28;20037;-48
2023/09/28 06:24:49;;;;;;;3.78;2.60;;;16.60;99.90;;;17.08;100.00;101081.84;5237752;28;20057;-48
2023/09/28 06:27:21;;;;;;;5.05;2.75;;;16.80;99.90;;;17.37;100.00;101091.84;5239527;28;20503;-47
2023/09/28 06:29:55;;;;;;;3.35;2.58;;;16.90;99.90;;;18.03;100.00;101088.16;5223204;28;20068;-48
2023/09/28 06:32:27;;;;;;;4.90;2.67;;;17.30;99.90;;;18.90;100.00;101091.44;5238452;28;20519;-48
2023/09/28 06:34:59;;;;;;;4.30;2.65;;;18.00;99.90;;;19.77;100.00;101091.81;5222527;28;20052;-48
2023/09/28 06:37:33;;;;;;;3.75;2.65;;;18.80;99.90;;;20.58;100.00;101096.25;5223633;28;20047;-48
2023/09/28 06:40:07;;;;;;;3.90;2.80;;;19.50;99.90;;;21.30;100.00;101099.59;5223238;28;20049;-50
2023/09/28 06:42:39;;;;;;;4.43;2.90;;;20.20;99.90;;;21.91;100.00;101101.94;5223963;28;20037;-49
2023/09/28 06:45:14;;;;;;;4.35;2.90;;;20.80;99.90;;;22.40;100.00;101103.34;5238209;28;20421;-48
2023/09/28 06:47:46;;;;;;;;;;;21.30;99.90;;;22.78;100.00;101105.63;5239232;28;20045;-48
2023/09/28 06:50:21;;;;;;;5.93;2.90;;;21.70;99.90;;;23.11;100.00;101098.22;5237619;28;19929;-50
2023/09/28 06:52:54;;;;;;;5.07;2.85;;;22.10;99.90;;;23.48;98.43;101112.81;5238410;28;20045;-49
2023/09/28 06:55:26;;;;;;;3.97;2.80;;;22.50;99.90;;;23.76;97.35;101109.78;5238483;28;20040;-48
2023/09/28 06:57:59;;;;;;;4.03;2.80;;;22.80;99.90;;;23.93;95.98;101113.09;5221860;28;20045;-49
2023/09/28 07:00:33;;;;;;;4.53;2.70;;;23.00;99.90;;;24.04;94.03;101108.47;5238724;28;20064;-49
2023/09/28 07:03:05;;;;;;;5.70;3.55;;;23.10;99.90;;;24.15;93.85;101115.41;5222464;28;20056;-49
2023/09/28 07:05:38;;;;;;;4.18;2.92;;;23.30;99.90;;;24.25;92.85;101122.31;5222905;28;20069;-48
2023/09/28 07:08:10;;;;;;;6.57;2.72;;;23.40;99.80;;;24.32;92.07;101121.31;5222550;28;20075;-49
2023/09/28 07:10:43;;;;;;;5.80;2.97;;;23.50;99.50;;;24.24;91.42;101128.56;5223315;28;20044;-49
2023/09/28 07:13:15;;;;;;;4.22;2.65;;;23.50;99.10;;;24.27;91.48;101131.19;5236829;28;20446;-48
2023/09/28 07:15:49;;;;;;;6.10;2.97;;;23.50;99.00;;;24.33;92.62;101129.34;5238743;28;20176;-48
2023/09/28 07:18:21;;;;;;;5.00;2.75;;;23.60;99.30;;;24.31;91.43;101125.75;5238566;28;20045;-49
2023/09/28 07:20:55;;;;;;;5.75;3.03;;;23.60;98.80;;;24.31;91.38;101124.88;5238574;28;20059;-48
2023/09/28 07:23:27;;;;;;;5.95;3.03;;;23.60;98.60;;;24.30;91.81;101132.00;5238478;28;20044;-48
2023/09/28 07:26:00;;;;;;;6.35;2.92;;;23.60;98.80;;;24.27;91.04;101145.38;5221882;28;20044;-49
2023/09/28 07:28:36;;;;;;;4.22;2.67;;;23.60;98.40;;;24.28;91.03;101152.47;5222730;28;20056;-48
2023/09/28 07:31:09;;;;;;;5.50;3.15;;;23.60;98.30;;;24.29;90.57;101145.34;5222728;28;20411;-48
2023/09/28 07:33:42;;;;;;;4.63;2.70;;;23.60;98.20;;;24.35;91.12;101142.63;5238603;28;20155;-47
2023/09/28 07:36:14;;;;;;;4.43;2.72;;;23.60;98.30;;;24.44;90.89;101147.78;5221031;28;20508;-48
2023/09/28 07:38:47;;;;;;;3.92;2.78;;;23.60;98.20;;;24.54;90.69;101146.75;5222265;28;20039;-50
2023/09/28 07:41:19;;;;;;;4.93;3.10;;;23.70;98.20;;;24.67;90.23;101146.53;5237921;28;20508;-49
2023/09/28 07:43:52;;;;;;;4.28;2.47;;;23.80;98.10;;;24.77;89.94;101145.44;5239112;28;20575;-49
2023/09/28 07:46:25;;;;;;;4.13;2.80;;;23.80;98.10;;;24.86;89.75;101142.63;5234873;28;20049;-48
2023/09/28 07:48:58;;;;;;;4.00;2.70;;;23.80;98.20;;;24.99;89.03;101154.81;5238021;28;20500;-48
2023/09/28 07:51:31;;;;;;;5.47;2.65;;;23.90;97.70;;;25.14;89.52;101162.53;5238291;28;20049;-48
2023/09/28 07:54:04;;;;;;;5.63;2.75;;;24.00;98.00;;;25.31;88.33;101166.69;5221774;28;20136;-49
2023/09/28 07:56:36;;;;;;;4.93;2.22;;;24.10;97.70;;;25.27;87.74;101162.31;5238482;28;20051;-47
2023/09/28 07:59:09;;;;;;;5.45;2.85;;;24.10;97.30;;;25.14;87.43;101165.22;5222546;28;20713;-49
2023/09/28 08:01:42;;;;;;;5.50;2.47;;;24.10;97.20;;;25.07;88.00;101176.91;5237755;28;20526;-48
2023/09/28 08:04:16;;;;;;;8.10;2.72;;;24.00;97.30;;;25.04;88.13;101176.97;5236040;28;20049;-48
2023/09/28 08:06:48;;;;;;;4.70;2.30;;;23.90;97.30;;;25.03;88.26;101185.84;5221248;28;20048;-49
2023/09/28 08:09:23;;;;;;;3.95;2.10;;;23.80;97.40;;;25.12;88.25;101184.84;5220470;28;20053;-48
2023/09/28 08:11:55;;;;;;;4.90;2.42;;;23.80;97.50;;;25.22;88.37;101188.19;5237631;28;20437;-48
2023/09/28 08:14:30;;;;;;;4.10;2.17;;;23.80;97.60;;;25.44;88.54;101176.19;5221257;28;20586;-49
2023/09/28 08:17:04;;;;;;;5.55;2.25;;;23.90;97.90;;;25.78;88.55;101170.16;5235365;28;20444;-49
2023/09/28 08:19:37;;;;;;;4.30;2.30;;;24.10;98.20;;;26.28;86.32;101171.69;5236301;28;20045;-48
2023/09/28 08:22:10;;;;;;;3.38;2.13;;;24.30;98.00;;;26.67;84.03;101161.81;5219974;28;20072;-48
2023/09/28 08:24:45;;;;;;;3.17;2.10;;;24.60;97.10;;;27.18;82.88;101169.34;5236172;28;20041;-49
2023/09/28 08:27:18;;;;;;;2.95;1.83;;;25.00;96.70;;;27.74;81.21;101169.53;5218998;28;20186;-49
2023/09/28 08:29:51;;;;;;;4.13;2.10;;;25.50;96.10;;;28.16;79.81;101163.75;5236377;28;20072;-50
2023/09/28 08:32:47;;;;;;;3.30;2.38;;;26.00;95.60;;;28.20;77.77;101173.47;5219991;28;20426;-49
2023/09/28 08:38:46;;;;;;;5.57;2.60;;;26.30;94.00;;;28.17;78.00;101186.06;5235728;28;20559;-50
2023/09/28 08:41:44;;;;;;;4.15;2.17;;;26.40;93.90;;;28.25;77.90;101179.56;5236485;28;20461;-48
2023/09/28 08:44:39;;;;;;;3.63;2.00;;;26.60;93.80;;;28.35;77.88;101181.03;5217418;28;20518;-50
2023/09/28 08:47:17;;;;;;;2.58;2.00;;;26.70;93.70;;;28.39;78.18;101182.69;5220527;28;20049;-49
2023/09/28 08:49:52;;;;;;;4.30;2.33;;;26.80;93.60;;;28.36;78.08;101193.53;5221021;28;20110;-48
2023/09/28 08:55:38;;;;;;;3.20;2.03;;;26.90;93.20;;;27.85;79.95;101212.97;5216091;28;20045;-49
2023/09/28 08:58:13;;;;;;;4.35;2.20;;;26.70;93.40;;;27.56;81.22;101208.41;5237383;28;20075;-48
2023/09/28 09:00:49;;;;;;;3.30;2.00;;;26.50;93.70;;;27.35;81.88;101216.19;5237051;28;20496;-48
2023/09/28 09:03:24;;;;;;;3.30;2.00;;;26.40;93.90;;;27.17;83.44;101218.44;5236587;28;20401;-49
2023/09/28 09:05:59;;;;;;;3.90;2.03;;;26.20;94.30;;;27.03;84.06;101209.88;5236751;28;20069;-49
2023/09/28 09:08:35;;;;;;;3.17;1.95;;;26.10;94.60;;;26.89;84.65;101214.72;5221450;28;20052;-49
2023/09/28 09:11:10;;;;;;;3.28;2.10;;;26.00;94.80;;;26.75;84.99;101202.59;5237003;28;20051;-49
2023/09/28 09:13:50;;;;;;;4.35;2.10;;;25.90;94.90;;;26.63;85.92;101200.22;5220810;28;20126;-49
2023/09/28 09:16:23;;;;;;;4.38;2.30;;;25.80;95.20;;;26.62;86.93;101198.47;5220459;28;20056;-48
2023/09/28 09:18:57;;;;;;;4.70;2.60;;;25.70;95.60;;;26.51;86.76;101195.19;5220794;28;20136;-49
2023/09/28 09:21:40;;;;;;;4.13;2.08;;;25.60;95.50;;;26.41;87.74;101188.31;5236901;28;20076;-49
2023/09/28 09:24:14;;;;;;;3.60;2.22;;;25.50;95.80;;;26.36;88.48;101191.06;5220344;28;20087;-49
2023/09/28 09:26:52;;;;;;;;;;;25.50;96.20;;;26.32;88.92;101191.16;5237615;28;20041;-50
2023/09/28 09:29:25;;;;;;;4.68;2.25;;;25.50;96.30;;;26.21;88.61;101183.41;5237398;28;20017;-49
2023/09/28 09:31:58;;;;;;;3.88;2.35;;;25.40;96.20;;;26.17;89.22;101187.94;5220892;28;20044;-49
2023/09/28 09:34:32;;;;;;;4.40;2.70;;;25.30;96.40;;;26.19;89.60;101194.13;5218104;28;20514;-49
2023/09/28 09:37:06;;;;;;;4.97;2.15;;;25.30;96.60;;;26.20;89.95;101185.19;5237178;28;20044;-48
2023/09/28 09:39:39;;;;;;;5.93;2.28;;;25.30;96.80;;;26.29;90.15;101192.13;5211895;28;20103;-48
2023/09/28 09:42:11;;;;;;;4.65;2.10;;;25.40;96.90;;;26.37;90.29;101203.50;5236814;28;20052;-50
2023/09/28 09:44:49;;;;;;;5.50;2.03;;;25.40;97.00;;;26.42;90.06;101206.13;5220756;28;20045;-49
2023/09/28 09:47:21;;;;;;;4.30;2.33;;;25.50;97.00;;;26.40;89.86;101199.91;5236282;28;20064;-49
2023/09/28 09:49:55;;;;;;;3.58;2.17;;;25.50;96.90;;;26.43;89.30;101198.06;5214351;28;20045;-47
2023/09/28 09:52:29;;;;;;;;;;;25.50;96.70;;;26.40;88.43;101203.47;5227128;28;20041;-48
2023/09/28 09:55:02;;;;;;;4.40;2.60;;;25.50;96.30;;;26.22;88.25;101199.41;5220208;28;19921;-48
2023/09/28 09:57:38;;;;;;;7.20;2.78;;;25.40;96.10;;;25.91;89.27;101198.34;5226831;28;20068;-48
2023/09/28 10:00:15;;;;;;;6.38;2.85;;;25.20;96.30;;;25.71;91.17;101201.44;5214937;28;20064;-48
2023/09/28 10:02:55;;;;;;;5.80;2.95;;;25.00;96.90;;;25.70;92.41;101205.88;5223220;28;20048;-48
2023/09/28 10:05:28;;;;;;;4.47;2.65;;;24.90;97.40;;;25.76;93.47;101204.03;5215443;28;20374;-49
2023/09/28 10:08:04;;;;;;;6.80;3.28;;;24.90;97.80;;;25.80;93.12;101200.38;5228579;28;20474;-47
2023/09/28 10:10:40;;;;;;;6.38;3.03;;;25.00;97.80;;;25.66;92.55;101198.84;5241131;28;20045;-47
2023/09/28 10:13:13;;;;;;;6.65;3.00;;;24.90;97.60;;;25.43;93.65;101206.47;5230266;28;20045;-47
2023/09/28 10:15:46;;;;;;;7.72;3.33;;;24.70;97.80;;;25.26;94.42;101206.78;5230141;28;20045;-47
2023/09/28 10:18:19;;;;;;;4.93;2.70;;;24.60;98.00;;;25.06;94.89;101206.28;5230407;28;20143;-48
2023/09/28 10:20:51;;;;;;;4.93;3.03;;;24.40;98.10;;;24.96;96.31;101200.19;5240516;28;20052;-48
2023/09/28 10:23:28;;;;;;;7.00;3.20;;;24.30;98.60;;;25.08;97.00;101202.66;5230686;28;20523;-47
2023/09/28 10:26:07;;;;;;;5.60;3.30;;;24.40;99.10;;;25.15;96.68;101201.66;5230667;28;20049;-48
2023/09/28 10:29:07;;;;;;;5.82;3.38;;;24.40;99.00;;;25.29;96.37;101208.50;5226635;28;20069;-48
2023/09/28 10:31:41;;;;;;;4.95;3.08;;;24.50;99.10;;;25.42;95.62;101215.34;5234937;28;20036;-48
2023/09/28 10:34:20;;;;;;;5.13;3.10;;;24.60;98.90;;;25.33;94.34;101208.41;5229731;28;20040;-52
2023/09/28 10:37:19;;;;;;;5.43;2.92;;;24.50;98.40;;;25.25;95.79;101212.16;5235450;28;20045;-49
2023/09/28 10:39:57;;;;;;;5.00;2.85;;;24.50;98.70;;;25.41;95.54;101206.47;5215443;28;20049;-48
2023/09/28 10:42:30;;;;;;;5.35;3.00;;;24.60;98.80;;;25.69;95.22;101209.47;5224591;28;20053;-48